createdAt,value
2018-08-09T00:01:43.840Z,9.20
2018-08-09T00:04:11.315Z,9.03
2018-08-09T00:06:38.855Z,8.95
2018-08-09T00:09:07.475Z,9.08
2018-08-09T00:11:34.927Z,9.18
2018-08-09T00:14:02.476Z,9.45
2018-08-09T00:16:29.978Z,9.05
2018-08-09T00:18:57.515Z,9.35
2018-08-09T00:21:25.012Z,9.53
2018-08-09T00:23:52.450Z,9.33
2018-08-09T00:26:19.871Z,9.05
2018-08-09T00:28:47.324Z,9.55
2018-08-09T00:31:14.767Z,9.18
2018-08-09T00:33:42.159Z,9.95
2018-08-09T00:36:09.581Z,9.73
2018-08-09T00:38:37.308Z,10.00
2018-08-09T00:41:04.734Z,9.78
2018-08-09T00:43:32.279Z,9.40
2018-08-09T00:45:59.690Z,9.95
2018-08-09T00:48:27.127Z,9.80
2018-08-09T00:50:54.561Z,9.63
2018-08-09T00:53:22.056Z,9.90
2018-08-09T00:55:49.523Z,9.88
2018-08-09T00:58:17.721Z,9.40
2018-08-09T01:00:45.162Z,9.83
2018-08-09T01:03:12.603Z,10.28
2018-08-09T01:05:40.114Z,9.60
2018-08-09T01:08:07.525Z,9.85
2018-08-09T01:10:34.875Z,9.53
2018-08-09T01:13:02.437Z,9.77
2018-08-09T01:15:29.972Z,9.77
2018-08-09T01:17:57.553Z,9.70
2018-08-09T01:20:25.067Z,9.58
2018-08-09T01:22:52.508Z,10.03
2018-08-09T01:25:20.008Z,9.88
2018-08-09T01:27:47.465Z,9.90
2018-08-09T01:30:14.953Z,10.10
2018-08-09T01:32:42.521Z,9.90
2018-08-09T01:35:10.037Z,10.10
2018-08-09T01:37:37.449Z,9.50
2018-08-09T01:40:05.153Z,9.60
2018-08-09T01:42:43.964Z,10.00
2018-08-09T01:45:11.453Z,9.80
2018-08-09T01:47:39.071Z,9.65
2018-08-09T01:50:06.500Z,10.10
2018-08-09T01:52:33.990Z,10.00
2018-08-09T01:55:01.471Z,10.30
2018-08-09T01:57:29.009Z,9.98
2018-08-09T01:59:56.503Z,10.20
2018-08-09T02:02:23.938Z,9.93
2018-08-09T02:04:51.434Z,10.80
2018-08-09T02:07:18.876Z,10.40
2018-08-09T02:09:46.396Z,10.18
2018-08-09T02:12:13.879Z,11.35
2018-08-09T02:14:41.301Z,10.68
2018-08-09T02:17:08.717Z,10.30
2018-08-09T02:19:36.268Z,11.08
2018-08-09T02:22:03.771Z,11.00
2018-08-09T02:24:31.237Z,10.97
2018-08-09T02:26:58.646Z,11.35
2018-08-09T02:29:26.040Z,11.03
2018-08-09T02:31:53.416Z,10.95
2018-08-09T02:34:20.827Z,11.48
2018-08-09T02:36:48.269Z,11.03
2018-08-09T02:39:15.778Z,10.95
2018-08-09T02:41:43.207Z,10.80
2018-08-09T02:44:10.619Z,10.63
2018-08-09T02:46:38.081Z,10.75
2018-08-09T02:49:05.543Z,10.80
2018-08-09T02:51:32.956Z,10.93
2018-08-09T02:54:00.428Z,10.95
2018-08-09T02:56:27.759Z,10.98
2018-08-09T02:58:55.263Z,10.87
2018-08-09T03:01:22.703Z,11.20
2018-08-09T03:03:50.026Z,11.53
2018-08-09T03:06:17.455Z,11.08
2018-08-09T03:08:44.925Z,11.75
2018-08-09T03:11:12.403Z,11.45
2018-08-09T03:13:39.942Z,11.22
2018-08-09T03:16:07.315Z,10.78
2018-08-09T03:18:34.754Z,10.95
2018-08-09T03:21:02.214Z,11.12
2018-08-09T03:23:29.611Z,11.00
2018-08-09T03:25:57.112Z,11.25
2018-08-09T03:28:24.518Z,11.25
2018-08-09T03:30:51.987Z,11.28
2018-08-09T03:33:19.390Z,12.35
2018-08-09T03:35:46.773Z,11.20
2018-08-09T03:38:14.150Z,11.45
2018-08-09T03:40:41.714Z,11.20
2018-08-09T03:43:09.071Z,11.23
2018-08-09T03:45:36.516Z,11.25
2018-08-09T03:48:04.011Z,11.12
2018-08-09T03:50:31.342Z,10.82
2018-08-09T03:52:58.732Z,11.03
2018-08-09T03:55:26.158Z,11.03
2018-08-09T03:57:53.902Z,10.88
2018-08-09T04:00:21.349Z,11.15
2018-08-09T04:02:48.827Z,11.75
2018-08-09T04:05:16.315Z,12.35
2018-08-09T04:07:43.788Z,12.45
2018-08-09T04:10:11.338Z,12.53
2018-08-09T04:12:38.735Z,12.33
2018-08-09T04:15:07.443Z,12.78
2018-08-09T04:17:34.905Z,12.40
2018-08-09T04:20:02.487Z,12.70
2018-08-09T04:22:29.852Z,13.00
2018-08-09T04:24:57.250Z,13.20
2018-08-09T04:27:24.894Z,13.50
2018-08-09T04:29:52.399Z,12.57
2018-08-09T04:32:26.161Z,13.25
2018-08-09T04:34:53.632Z,13.50
2018-08-09T04:37:21.184Z,14.23
2018-08-09T04:39:53.097Z,13.72
2018-08-09T04:42:24.965Z,13.45
2018-08-09T04:47:52.016Z,13.20
2018-08-09T04:50:27.799Z,12.75
2018-08-09T04:52:58.913Z,13.55
2018-08-09T04:55:26.301Z,13.53
2018-08-09T04:57:53.708Z,13.03
2018-08-09T05:00:21.233Z,12.95
2018-08-09T05:02:48.672Z,14.07
2018-08-09T05:05:38.075Z,13.72
2018-08-09T05:08:20.823Z,13.20
2018-08-09T05:10:51.235Z,13.90
2018-08-09T05:13:30.229Z,13.22
2018-08-09T05:18:46.367Z,13.10
2018-08-09T05:21:17.059Z,13.43
2018-08-09T05:23:44.589Z,13.18
2018-08-09T05:26:11.934Z,13.22
2018-08-09T05:28:39.417Z,12.73
2018-08-09T05:31:06.816Z,12.93
2018-08-09T05:33:34.328Z,12.15
2018-08-09T05:36:01.736Z,12.20
2018-08-09T05:38:29.217Z,12.13
2018-08-09T05:40:57.139Z,12.93
2018-08-09T05:43:24.614Z,12.47
2018-08-09T05:45:52.086Z,11.80
2018-08-09T05:48:19.595Z,12.03
2018-08-09T05:50:47.029Z,12.37
2018-08-09T05:53:14.606Z,12.47
2018-08-09T05:55:42.038Z,12.20
2018-08-09T05:58:09.519Z,12.63
2018-08-09T06:00:36.971Z,12.43
2018-08-09T06:03:04.462Z,12.07
2018-08-09T06:05:31.954Z,12.25
2018-08-09T06:07:59.763Z,11.70
2018-08-09T06:10:28.567Z,11.65
2018-08-09T06:12:57.671Z,11.80
2018-08-09T06:15:25.523Z,11.38
2018-08-09T06:18:03.403Z,11.60
2018-08-09T06:20:31.917Z,11.05
2018-08-09T06:22:59.365Z,11.55
2018-08-09T06:25:26.811Z,11.25
2018-08-09T06:27:54.567Z,11.78
2018-08-09T06:30:22.138Z,11.95
2018-08-09T06:32:49.574Z,12.07
2018-08-09T06:35:17.097Z,12.85
2018-08-09T06:37:44.633Z,13.72
2018-08-09T06:40:13.194Z,12.10
2018-08-09T06:42:41.880Z,14.18
2018-08-09T06:45:09.927Z,19.07
2018-08-09T06:47:37.449Z,18.87
2018-08-09T06:50:05.558Z,13.48
2018-08-09T06:52:33.074Z,17.20
2018-08-09T06:55:00.551Z,12.30
2018-08-09T06:57:28.003Z,12.03
2018-08-09T06:59:55.451Z,11.53
2018-08-09T07:02:22.926Z,10.90
2018-08-09T07:04:50.394Z,11.10
2018-08-09T07:07:17.840Z,11.80
2018-08-09T07:09:45.259Z,25.10
2018-08-09T07:12:12.688Z,13.25
2018-08-09T07:14:40.185Z,16.40
2018-08-09T07:17:07.683Z,11.10
2018-08-09T07:19:35.200Z,10.65
2018-08-09T07:22:02.865Z,12.80
2018-08-09T07:24:30.245Z,12.68
2018-08-09T07:26:57.743Z,14.23
2018-08-09T07:29:25.166Z,11.22
2018-08-09T07:31:52.650Z,10.30
2018-08-09T07:34:20.003Z,10.13
2018-08-09T07:36:47.419Z,10.30
2018-08-09T07:39:15.129Z,11.08
2018-08-09T07:41:42.598Z,10.35
2018-08-09T07:44:11.719Z,9.90
2018-08-09T07:46:40.949Z,10.53
2018-08-09T07:49:08.422Z,9.85
2018-08-09T07:51:35.854Z,10.98
2018-08-09T07:54:03.431Z,10.23
2018-08-09T07:56:30.994Z,10.23
2018-08-09T07:58:58.474Z,9.58
2018-08-09T08:01:25.969Z,10.70
2018-08-09T08:03:53.450Z,11.53
2018-08-09T08:06:21.110Z,10.80
2018-08-09T08:08:48.697Z,11.48
2018-08-09T08:11:16.269Z,10.82
2018-08-09T08:13:43.782Z,11.10
2018-08-09T08:16:11.393Z,11.85
2018-08-09T08:18:38.980Z,11.38
2018-08-09T08:21:06.557Z,12.10
2018-08-09T08:23:34.253Z,12.00
2018-08-09T08:26:02.509Z,13.17
2018-08-09T08:28:30.202Z,12.50
2018-08-09T08:30:57.776Z,12.37
2018-08-09T08:33:25.339Z,11.08
2018-08-09T08:35:52.797Z,11.48
2018-08-09T08:38:21.051Z,12.28
2018-08-09T08:40:50.375Z,11.45
2018-08-09T08:43:17.910Z,11.25
2018-08-09T08:45:45.414Z,12.15
2018-08-09T08:48:12.839Z,11.75
2018-08-09T08:50:40.412Z,11.40
2018-08-09T08:53:07.851Z,11.38
2018-08-09T08:55:35.426Z,10.83
2018-08-09T08:58:03.001Z,11.63
2018-08-09T09:00:30.463Z,11.25
2018-08-09T09:02:57.976Z,11.25
2018-08-09T09:05:25.532Z,11.30
2018-08-09T09:07:53.041Z,11.18
2018-08-09T09:10:20.583Z,10.43
2018-08-09T09:12:48.002Z,10.75
2018-08-09T09:15:15.898Z,10.90
2018-08-09T09:17:44.129Z,12.95
2018-08-09T09:20:13.449Z,10.37
2018-08-09T09:22:41.748Z,10.13
2018-08-09T09:25:09.927Z,10.08
2018-08-09T09:27:37.462Z,10.03
2018-08-09T09:30:13.321Z,9.95
2018-08-09T09:32:40.956Z,9.73
2018-08-09T09:35:09.019Z,9.48
2018-08-09T09:37:36.782Z,9.50
2018-08-09T09:40:05.475Z,9.25
2018-08-09T09:42:41.240Z,8.90
2018-08-09T09:45:09.640Z,8.68
2018-08-09T09:47:37.068Z,8.70
2018-08-09T09:50:04.942Z,8.43
2018-08-09T09:52:32.432Z,8.28
2018-08-09T09:54:59.974Z,8.48
2018-08-09T09:57:31.612Z,8.10
2018-08-09T10:00:05.125Z,8.38
2018-08-09T10:02:33.411Z,8.60
2018-08-09T10:05:01.017Z,7.83
2018-08-09T10:07:28.612Z,8.30
2018-08-09T10:09:56.999Z,7.70
2018-08-09T10:12:42.743Z,8.43
2018-08-09T10:15:10.395Z,8.33
2018-08-09T10:17:38.028Z,8.28
2018-08-09T10:20:09.574Z,8.58
2018-08-09T10:22:37.289Z,8.38
2018-08-09T10:25:05.322Z,8.08
2018-08-09T10:27:32.741Z,8.10
2018-08-09T10:30:01.847Z,8.15
2018-08-09T10:32:30.591Z,8.33
2018-08-09T10:35:10.611Z,8.00
2018-08-09T10:37:38.186Z,8.00
2018-08-09T10:40:05.879Z,7.72
2018-08-09T10:42:33.433Z,7.70
2018-08-09T10:45:00.880Z,7.45
2018-08-09T10:47:28.361Z,7.85
2018-08-09T10:49:56.170Z,7.65
2018-08-09T10:52:23.606Z,7.87
2018-08-09T10:54:51.098Z,8.87
2018-08-09T10:57:18.956Z,8.08
2018-08-09T10:59:46.350Z,8.45
2018-08-09T11:02:14.062Z,8.50
2018-08-09T11:04:41.514Z,8.33
2018-08-09T11:07:09.622Z,7.97
2018-08-09T11:09:37.940Z,7.97
2018-08-09T11:12:06.449Z,8.30
2018-08-09T11:14:35.200Z,7.55
2018-08-09T11:17:02.686Z,8.08
2018-08-09T11:19:30.612Z,8.40
2018-08-09T11:21:58.678Z,8.05
2018-08-09T11:24:33.235Z,8.00
2018-08-09T11:27:00.793Z,7.67
2018-08-09T11:29:28.478Z,7.85
2018-08-09T11:31:56.021Z,7.97
2018-08-09T11:34:24.172Z,8.05
2018-08-09T11:36:51.679Z,8.38
2018-08-09T11:39:19.217Z,11.25
2018-08-09T11:41:46.784Z,12.15
2018-08-09T11:44:14.247Z,15.40
2018-08-09T11:46:42.259Z,7.90
2018-08-09T11:49:09.750Z,8.00
2018-08-09T11:51:37.246Z,8.40
2018-08-09T11:54:05.239Z,7.85
2018-08-09T11:56:32.782Z,7.87
2018-08-09T11:59:00.224Z,8.23
2018-08-09T12:01:27.826Z,7.65
2018-08-09T12:03:55.268Z,8.43
2018-08-09T12:06:22.810Z,7.83
2018-08-09T12:08:50.816Z,7.60
2018-08-09T12:11:18.398Z,9.10
2018-08-09T12:13:45.928Z,10.32
2018-08-09T12:16:13.458Z,7.75
2018-08-09T12:18:41.078Z,7.58
2018-08-09T12:21:08.734Z,7.80
2018-08-09T12:23:36.263Z,7.08
2018-08-09T12:26:03.853Z,6.55
2018-08-09T12:28:31.283Z,5.67
2018-08-09T12:30:58.855Z,3.22
2018-08-09T12:33:26.331Z,3.80
2018-08-09T12:35:53.765Z,2.90
2018-08-09T12:38:21.215Z,5.40
2018-08-09T12:40:48.761Z,3.60
2018-08-09T12:43:16.227Z,3.10
2018-08-09T12:45:44.085Z,2.83
2018-08-09T12:48:11.708Z,2.90
2018-08-09T12:50:39.315Z,2.60
2018-08-09T12:53:06.783Z,2.45
2018-08-09T12:55:34.407Z,2.30
2018-08-09T12:58:02.088Z,2.60
2018-08-09T13:00:29.661Z,2.70
2018-08-09T13:02:57.393Z,2.85
2018-08-09T13:05:25.514Z,2.90
2018-08-09T13:07:53.100Z,2.60
2018-08-09T13:10:20.560Z,2.98
2018-08-09T13:12:48.140Z,2.83
2018-08-09T13:15:18.162Z,2.92
2018-08-09T13:17:48.368Z,2.70
2018-08-09T13:20:18.157Z,3.58
2018-08-09T13:22:46.129Z,2.77
2018-08-09T13:25:13.717Z,3.05
2018-08-09T13:27:41.214Z,3.37
2018-08-09T13:30:11.953Z,3.52
2018-08-09T13:32:39.854Z,3.20
2018-08-09T13:35:24.881Z,3.20
2018-08-09T13:37:52.301Z,3.20
2018-08-09T13:40:24.747Z,3.40
2018-08-09T13:42:57.485Z,3.05
2018-08-09T13:45:33.504Z,3.67
2018-08-09T13:48:02.920Z,4.12
2018-08-09T13:50:30.536Z,3.75
2018-08-09T13:53:17.685Z,4.10
2018-08-09T13:55:45.208Z,4.15
2018-08-09T13:58:12.833Z,4.00
2018-08-09T14:00:44.743Z,3.90
2018-08-09T14:03:24.129Z,4.10
2018-08-09T14:05:53.187Z,4.00
2018-08-09T14:08:29.679Z,4.00
2018-08-09T14:10:57.757Z,4.05
2018-08-09T14:13:25.224Z,3.85
2018-08-09T14:15:52.712Z,4.30
2018-08-09T14:18:20.203Z,3.93
2018-08-09T14:20:47.850Z,3.90
2018-08-09T14:23:15.413Z,3.92
2018-08-09T14:25:42.982Z,4.35
2018-08-09T14:28:10.637Z,3.90
2018-08-09T14:30:38.297Z,4.08
2018-08-09T14:33:07.605Z,4.10
2018-08-09T14:35:35.262Z,4.03
2018-08-09T14:38:02.903Z,3.75
2018-08-09T14:40:30.760Z,3.90
2018-08-09T14:42:58.235Z,3.98
2018-08-09T14:45:25.779Z,3.75
2018-08-09T14:47:53.365Z,3.60
2018-08-09T14:50:20.797Z,3.50
2018-08-09T14:52:48.353Z,3.67
2018-08-09T14:55:15.826Z,3.67
2018-08-09T14:57:44.631Z,3.62
2018-08-09T15:00:16.264Z,3.20
2018-08-09T15:02:44.484Z,3.67
2018-08-09T15:05:11.947Z,3.85
2018-08-09T15:07:39.613Z,3.65
2018-08-09T15:10:07.270Z,3.45
2018-08-09T15:12:34.817Z,4.00
2018-08-09T15:15:02.221Z,3.55
2018-08-09T15:17:40.972Z,3.77
2018-08-09T15:20:10.520Z,3.42
2018-08-09T15:22:38.070Z,3.90
2018-08-09T15:25:06.468Z,4.10
2018-08-09T15:27:34.022Z,3.50
2018-08-09T15:30:01.473Z,3.60
2018-08-09T15:32:28.966Z,3.65
2018-08-09T15:34:56.441Z,3.83
2018-08-09T15:37:23.844Z,3.70
2018-08-09T15:39:51.448Z,3.73
2018-08-09T15:42:23.476Z,4.05
2018-08-09T15:44:51.142Z,3.98
2018-08-09T15:47:18.607Z,3.80
2018-08-09T15:49:45.998Z,3.67
2018-08-09T15:52:13.395Z,4.20
2018-08-09T15:54:40.892Z,4.05
2018-08-09T15:57:08.460Z,3.87
2018-08-09T15:59:35.975Z,3.60
2018-08-09T16:02:03.599Z,3.47
2018-08-09T16:04:31.225Z,3.50
2018-08-09T16:06:58.708Z,3.70
2018-08-09T16:09:26.175Z,3.65
2018-08-09T16:11:53.689Z,3.60
2018-08-09T16:14:21.296Z,3.47
2018-08-09T16:16:48.786Z,3.50
2018-08-09T16:19:16.416Z,3.58
2018-08-09T16:21:43.920Z,3.70
2018-08-09T16:24:11.416Z,3.60
2018-08-09T16:26:38.943Z,3.25
2018-08-09T16:29:06.410Z,3.40
2018-08-09T16:31:34.040Z,3.67
2018-08-09T16:34:01.584Z,3.60
2018-08-09T16:36:31.678Z,3.60
2018-08-09T16:38:59.290Z,3.72
2018-08-09T16:41:26.893Z,3.40
2018-08-09T16:43:54.318Z,3.55
2018-08-09T16:46:21.766Z,3.42
2018-08-09T16:48:49.265Z,3.58
2018-08-09T16:51:16.732Z,4.25
2018-08-09T16:53:45.312Z,19.73
2018-08-09T16:56:12.780Z,9.57
2018-08-09T16:58:40.204Z,5.85
2018-08-09T17:01:07.808Z,4.17
2018-08-09T17:03:35.340Z,3.80
2018-08-09T17:06:02.964Z,5.12
2018-08-09T17:08:30.489Z,3.30
2018-08-09T17:10:58.113Z,2.70
2018-08-09T17:13:25.657Z,2.87
2018-08-09T17:15:53.183Z,3.03
2018-08-09T17:18:20.804Z,3.10
2018-08-09T17:20:48.385Z,2.70
2018-08-09T17:23:15.924Z,2.83
2018-08-09T17:25:43.485Z,2.80
2018-08-09T17:28:11.138Z,2.80
2018-08-09T17:30:39.482Z,2.92
2018-08-09T17:33:09.090Z,2.80
2018-08-09T17:35:36.640Z,2.95
2018-08-09T17:38:04.280Z,3.20
2018-08-09T17:40:32.792Z,2.87
2018-08-09T17:43:01.085Z,2.60
2018-08-09T17:45:30.853Z,3.10
2018-08-09T17:47:58.750Z,3.00
2018-08-09T17:50:26.368Z,2.67
2018-08-09T17:52:55.478Z,3.33
2018-08-09T17:55:22.891Z,2.67
2018-08-09T17:57:50.391Z,2.60
2018-08-09T18:00:21.411Z,2.60
2018-08-09T18:02:49.060Z,2.70
2018-08-09T18:05:16.528Z,2.60
2018-08-09T18:07:44.089Z,2.85
2018-08-09T18:10:14.826Z,2.50
2018-08-09T18:12:42.390Z,2.50
2018-08-09T18:15:09.903Z,2.42
2018-08-09T18:17:38.271Z,2.50
2018-08-09T18:20:10.294Z,2.50
2018-08-09T18:22:37.681Z,2.45
2018-08-09T18:25:06.257Z,2.52
2018-08-09T18:27:33.733Z,2.33
2018-08-09T18:30:01.185Z,2.50
2018-08-09T18:32:28.750Z,2.67
2018-08-09T18:34:56.305Z,2.50
2018-08-09T18:37:23.769Z,2.33
2018-08-09T18:39:51.309Z,2.50
2018-08-09T18:42:18.840Z,2.40
2018-08-09T18:44:46.489Z,2.50
2018-08-09T18:47:14.012Z,2.70
2018-08-09T18:49:41.734Z,2.40
2018-08-09T18:52:09.235Z,2.33
2018-08-09T18:54:36.735Z,2.60
2018-08-09T18:57:04.344Z,2.45
2018-08-09T18:59:32.542Z,2.35
2018-08-09T19:02:00.474Z,2.37
2018-08-09T19:04:28.179Z,2.27
2018-08-09T19:06:56.285Z,2.40
2018-08-09T19:09:26.433Z,1.98
2018-08-09T19:11:56.923Z,2.17
2018-08-09T19:14:24.460Z,2.20
2018-08-09T19:16:51.879Z,2.20
2018-08-09T19:19:19.474Z,2.05
2018-08-09T19:21:47.036Z,2.10
2018-08-09T19:24:14.569Z,2.00
2018-08-09T19:26:42.204Z,2.12
2018-08-09T19:33:31.819Z,2.47
2018-08-09T19:36:09.717Z,1.90
2018-08-09T19:38:37.392Z,1.90
2018-08-09T19:41:04.870Z,1.80
2018-08-09T19:43:32.511Z,1.70
2018-08-09T19:46:01.090Z,1.80
2018-08-09T19:48:28.821Z,1.60
2018-08-09T19:50:56.392Z,1.90
2018-08-09T19:53:28.487Z,1.65
2018-08-09T19:55:56.005Z,1.72
2018-08-09T19:58:28.949Z,1.67
2018-08-09T20:00:56.537Z,1.60
2018-08-09T20:03:24.132Z,1.90
2018-08-09T20:05:51.777Z,1.80
2018-08-09T20:08:19.323Z,1.60
2018-08-09T20:10:47.029Z,1.70
2018-08-09T20:13:14.852Z,1.60
2018-08-09T20:15:42.591Z,1.80
2018-08-09T20:18:10.059Z,1.70
2018-08-09T20:20:38.041Z,1.60
2018-08-09T20:23:06.031Z,1.60
2018-08-09T20:25:33.587Z,1.80
2018-08-09T20:28:01.212Z,1.70
2018-08-09T20:30:28.804Z,1.72
2018-08-09T20:32:56.418Z,1.80
2018-08-09T20:35:24.356Z,1.70
2018-08-09T20:37:52.122Z,2.00
2018-08-09T20:40:21.066Z,1.85
2018-08-09T20:42:49.530Z,1.72
2018-08-09T20:45:18.589Z,1.70
2018-08-09T20:47:52.290Z,1.70
2018-08-09T20:50:23.343Z,1.80
2018-08-09T20:52:51.664Z,1.42
2018-08-09T20:55:25.744Z,1.60
2018-08-09T20:58:01.670Z,1.80
2018-08-09T21:00:30.910Z,1.75
2018-08-09T21:02:59.895Z,1.70
2018-08-09T21:17:18.085Z,1.77
2018-08-09T21:19:45.589Z,1.67
2018-08-09T21:22:13.223Z,1.77
2018-08-09T21:24:40.782Z,1.83
2018-08-09T21:27:09.803Z,1.70
2018-08-09T21:33:04.327Z,1.60
2018-08-09T21:35:35.860Z,1.57
2018-08-09T21:41:01.720Z,1.80
2018-08-09T21:43:29.272Z,1.80
2018-08-09T21:51:59.740Z,1.70
2018-08-09T21:57:19.803Z,1.60
2018-08-09T21:59:47.230Z,1.90
2018-08-09T22:02:30.862Z,1.93
2018-08-09T22:07:53.172Z,1.60
2018-08-09T22:16:39.300Z,1.80
2018-08-09T22:19:12.276Z,1.70
2018-08-09T22:21:45.475Z,2.00
2018-08-09T22:24:34.010Z,1.90
2018-08-09T22:27:08.083Z,1.85
2018-08-09T22:29:45.903Z,1.80
2018-08-09T22:32:23.689Z,1.85
2018-08-09T22:37:54.264Z,1.77
2018-08-09T22:43:15.166Z,2.12
2018-08-09T22:51:37.602Z,1.95
2018-08-09T22:54:18.268Z,1.90
2018-08-09T22:56:57.742Z,2.10
2018-08-09T22:59:31.203Z,1.80
2018-08-09T23:02:11.177Z,2.10
2018-08-09T23:10:24.408Z,1.72
2018-08-09T23:15:44.828Z,1.52
2018-08-09T23:21:05.253Z,1.30
2018-08-09T23:23:32.819Z,1.60
2018-08-09T23:29:09.709Z,1.40
2018-08-09T23:31:45.722Z,1.30
2018-08-09T23:37:12.515Z,1.30
2018-08-09T23:39:40.024Z,1.20
2018-08-09T23:42:07.537Z,1.35
2018-08-09T23:44:47.151Z,1.20
2018-08-09T23:53:09.675Z,1.07
2018-08-09T23:58:40.349Z,1.15
